createdAt,value
2022-12-13T00:00:26.303Z,63.72
2022-12-13T00:02:56.203Z,63.80
2022-12-13T00:05:25.686Z,64.02
2022-12-13T00:07:55.201Z,63.75
2022-12-13T00:10:24.711Z,63.59
2022-12-13T00:12:54.163Z,63.26
2022-12-13T00:15:26.195Z,63.08
2022-12-13T00:17:55.709Z,63.04
2022-12-13T00:20:25.146Z,62.91
2022-12-13T00:22:54.621Z,63.86
2022-12-13T00:25:24.516Z,63.53
2022-12-13T00:27:53.987Z,64.63
2022-12-13T00:30:26.111Z,65.51
2022-12-13T00:32:55.609Z,64.91
2022-12-13T00:35:25.262Z,65.10
2022-12-13T00:37:54.744Z,64.79
2022-12-13T00:40:24.201Z,64.96
2022-12-13T00:42:53.704Z,64.87
2022-12-13T00:45:25.780Z,64.68
2022-12-13T00:47:55.773Z,64.64
2022-12-13T00:50:25.276Z,64.52
2022-12-13T00:52:54.755Z,64.04
2022-12-13T00:55:24.239Z,64.03
2022-12-13T00:57:53.772Z,63.87
2022-12-13T01:00:25.879Z,64.30
2022-12-13T01:02:55.684Z,64.10
2022-12-13T01:06:02.223Z,64.07
2022-12-13T01:08:14.759Z,63.86
2022-12-13T01:10:46.184Z,63.54
2022-12-13T01:13:15.857Z,63.59
2022-12-13T01:15:48.605Z,63.43
2022-12-13T01:18:19.195Z,63.48
2022-12-13T01:21:00.920Z,63.19
2022-12-13T01:23:30.527Z,63.28
2022-12-13T01:26:00.234Z,63.09
2022-12-13T01:28:29.756Z,63.09
2022-12-13T01:31:03.401Z,63.28
2022-12-13T01:33:33.284Z,63.56
2022-12-13T01:36:03.373Z,63.61
2022-12-13T01:38:37.635Z,63.73
2022-12-13T01:41:17.016Z,63.15
2022-12-13T01:44:01.126Z,62.58
2022-12-13T01:46:33.748Z,62.58
2022-12-13T01:49:06.260Z,62.91
2022-12-13T01:51:51.574Z,62.69
2022-12-13T01:54:24.231Z,63.16
2022-12-13T01:57:03.553Z,63.44
2022-12-13T01:59:33.053Z,63.47
2022-12-13T02:02:05.132Z,63.82
2022-12-13T02:04:44.232Z,64.01
2022-12-13T02:07:22.946Z,63.62
2022-12-13T02:09:56.371Z,63.66
2022-12-13T02:12:29.691Z,63.34
2022-12-13T02:15:01.226Z,63.37
2022-12-13T02:17:43.821Z,63.37
2022-12-13T02:20:32.633Z,63.48
2022-12-13T02:23:13.054Z,63.50
2022-12-13T02:25:53.482Z,64.30
2022-12-13T02:28:35.553Z,64.87
2022-12-13T02:31:10.186Z,64.87
2022-12-13T02:33:42.929Z,63.93
2022-12-13T02:36:15.465Z,64.03
2022-12-13T02:38:49.858Z,64.98
2022-12-13T02:41:22.175Z,65.12
2022-12-13T02:43:53.270Z,64.96
2022-12-13T02:46:36.603Z,65.58
2022-12-13T02:49:06.270Z,66.46
2022-12-13T02:51:35.743Z,67.37
2022-12-13T02:54:05.368Z,67.37
2022-12-13T02:56:34.903Z,67.67
2022-12-13T02:59:05.271Z,68.39
2022-12-13T03:01:43.741Z,68.30
2022-12-13T03:04:16.140Z,68.37
2022-12-13T03:06:49.168Z,68.26
2022-12-13T03:09:28.873Z,68.21
2022-12-13T03:12:23.208Z,67.63
2022-12-13T03:14:58.929Z,67.13
2022-12-13T03:17:31.252Z,66.68
2022-12-13T03:20:00.761Z,66.03
2022-12-13T03:22:30.254Z,65.95
2022-12-13T03:24:59.738Z,64.96
2022-12-13T03:27:29.226Z,64.41
2022-12-13T03:29:58.746Z,64.58
2022-12-13T03:32:30.817Z,65.40
2022-12-13T03:35:00.863Z,65.57
2022-12-13T03:37:30.602Z,65.66
2022-12-13T03:40:00.064Z,66.57
2022-12-13T03:42:29.819Z,66.67
2022-12-13T03:44:59.342Z,66.17
2022-12-13T03:47:31.392Z,65.98
2022-12-13T03:50:25.487Z,66.00
2022-12-13T03:52:51.460Z,66.35
2022-12-13T03:55:21.252Z,65.98
2022-12-13T03:57:50.747Z,65.52
2022-12-13T04:00:20.378Z,64.71
2022-12-13T04:02:52.521Z,63.83
2022-12-13T04:05:22.050Z,63.77
2022-12-13T04:07:51.675Z,64.80
2022-12-13T04:10:30.195Z,65.13
2022-12-13T04:13:12.140Z,65.66
2022-12-13T04:15:48.976Z,65.83
2022-12-13T04:18:21.736Z,65.29
2022-12-13T04:20:51.188Z,66.24
2022-12-13T04:23:20.632Z,66.49
2022-12-13T04:25:50.111Z,67.13
2022-12-13T04:28:22.058Z,67.41
2022-12-13T04:30:53.052Z,66.61
2022-12-13T04:33:26.210Z,66.19
2022-12-13T04:35:55.669Z,66.93
2022-12-13T04:38:25.157Z,67.14
2022-12-13T04:40:54.646Z,68.22
2022-12-13T04:43:24.118Z,68.58
2022-12-13T04:45:55.741Z,68.40
2022-12-13T04:48:30.837Z,68.48
2022-12-13T04:51:01.579Z,69.86
2022-12-13T04:53:31.398Z,70.98
2022-12-13T04:56:00.870Z,70.48
2022-12-13T04:58:30.416Z,69.64
2022-12-13T05:00:59.973Z,69.07
2022-12-13T05:03:33.565Z,68.28
2022-12-13T05:06:06.604Z,67.63
2022-12-13T05:09:00.950Z,66.58
2022-12-13T05:11:35.901Z,65.71
2022-12-13T05:14:05.809Z,66.35
2022-12-13T05:16:35.309Z,65.40
2022-12-13T05:19:07.394Z,64.74
2022-12-13T05:21:36.887Z,64.07
2022-12-13T05:24:06.717Z,63.73
2022-12-13T05:26:36.347Z,62.52
2022-12-13T05:29:05.851Z,62.69
2022-12-13T05:31:35.984Z,62.27
2022-12-13T05:34:08.136Z,61.27
2022-12-13T05:36:37.670Z,60.62
2022-12-13T05:39:27.907Z,60.76
2022-12-13T05:42:01.528Z,60.32
2022-12-13T05:44:32.448Z,60.03
2022-12-13T05:47:02.771Z,59.52
2022-12-13T05:49:35.013Z,59.66
2022-12-13T05:52:04.449Z,59.76
2022-12-13T05:54:33.892Z,60.32
2022-12-13T05:57:03.353Z,60.48
2022-12-13T05:59:32.835Z,59.73
2022-12-13T06:02:02.376Z,59.30
2022-12-13T06:04:31.920Z,59.07
2022-12-13T06:07:03.936Z,58.98
2022-12-13T06:09:33.472Z,59.29
2022-12-13T06:12:31.274Z,60.80
2022-12-13T06:15:01.442Z,61.50
2022-12-13T06:17:33.529Z,62.56
2022-12-13T06:20:03.029Z,63.46
2022-12-13T06:22:55.116Z,63.03
2022-12-13T06:25:31.132Z,62.75
2022-12-13T06:28:01.703Z,61.83
2022-12-13T06:30:31.316Z,61.29
2022-12-13T06:33:00.890Z,61.08
2022-12-13T06:35:31.531Z,60.87
2022-12-13T06:38:11.748Z,60.21
2022-12-13T06:40:42.488Z,60.48
2022-12-13T06:43:12.273Z,60.91
2022-12-13T06:45:43.190Z,60.99
2022-12-13T06:48:16.222Z,60.98
2022-12-13T06:50:48.671Z,61.33
2022-12-13T06:53:20.829Z,60.61
2022-12-13T06:55:50.504Z,60.20
2022-12-13T06:58:20.057Z,60.15
2022-12-13T07:00:49.730Z,60.44
2022-12-13T07:03:19.296Z,60.07
2022-12-13T07:05:52.406Z,60.02
2022-12-13T07:08:27.293Z,59.80
2022-12-13T07:10:57.610Z,59.40
2022-12-13T07:13:27.142Z,59.43
2022-12-13T07:16:01.156Z,59.59
2022-12-13T07:18:30.921Z,58.87
2022-12-13T07:21:00.388Z,58.75
2022-12-13T07:23:32.433Z,58.73
2022-12-13T07:26:02.566Z,58.86
2022-12-13T07:28:32.112Z,59.22
2022-12-13T07:31:03.073Z,58.99
2022-12-13T07:33:32.457Z,59.22
2022-12-13T07:36:06.928Z,58.78
2022-12-13T07:38:39.201Z,58.57
2022-12-13T07:41:08.741Z,58.72
2022-12-13T07:43:38.257Z,58.57
2022-12-13T07:46:08.688Z,59.07
2022-12-13T07:48:38.198Z,59.07
2022-12-13T07:51:11.023Z,58.79
2022-12-13T07:53:43.157Z,58.88
2022-12-13T07:56:13.690Z,58.44
2022-12-13T07:58:44.098Z,59.06
2022-12-13T08:01:13.622Z,58.97
2022-12-13T08:03:43.100Z,59.05
2022-12-13T08:06:13.844Z,59.17
2022-12-13T08:08:45.891Z,59.39
2022-12-13T08:11:17.632Z,59.01
2022-12-13T08:13:47.133Z,59.10
2022-12-13T08:16:25.928Z,59.22
2022-12-13T08:19:02.796Z,59.35
2022-12-13T08:24:28.889Z,59.72
2022-12-13T08:27:01.125Z,59.73
2022-12-13T08:29:34.104Z,59.55
2022-12-13T08:32:05.267Z,59.71
2022-12-13T08:34:35.068Z,59.83
2022-12-13T08:37:04.847Z,60.15
2022-12-13T08:39:37.927Z,60.26
2022-12-13T08:42:14.631Z,60.19
2022-12-13T08:44:47.098Z,59.97
2022-12-13T08:47:24.158Z,59.76
2022-12-13T08:50:01.379Z,59.55
2022-12-13T08:52:39.339Z,59.30
2022-12-13T08:55:13.175Z,59.05
2022-12-13T08:57:42.765Z,59.52
2022-12-13T09:00:14.204Z,59.02
2022-12-13T09:02:43.786Z,58.25
2022-12-13T09:05:32.422Z,58.41
2022-12-13T09:08:02.812Z,58.74
2022-12-13T09:10:38.712Z,58.74
2022-12-13T09:13:11.555Z,58.83
2022-12-13T09:15:45.939Z,58.61
2022-12-13T09:18:23.910Z,58.16
2022-12-13T09:20:54.639Z,58.12
2022-12-13T09:23:46.009Z,57.68
2022-12-13T09:26:19.043Z,59.16
2022-12-13T09:28:54.998Z,61.08
2022-12-13T09:31:24.584Z,60.53
2022-12-13T09:33:54.633Z,59.22
2022-12-13T09:36:24.260Z,57.97
2022-12-13T09:38:55.739Z,56.65
2022-12-13T09:41:31.101Z,56.96
2022-12-13T09:44:01.568Z,57.33
2022-12-13T09:46:34.370Z,57.94
2022-12-13T09:49:05.493Z,58.41
2022-12-13T09:51:48.915Z,58.74
2022-12-13T09:54:23.600Z,60.08
2022-12-13T09:56:56.929Z,60.80
2022-12-13T09:59:29.080Z,59.68
2022-12-13T10:01:58.830Z,60.54
2022-12-13T10:04:30.703Z,59.85
2022-12-13T10:07:00.172Z,58.05
2022-12-13T10:09:29.637Z,57.57
2022-12-13T10:12:01.678Z,58.89
2022-12-13T10:14:33.871Z,59.58
2022-12-13T10:17:04.858Z,61.40
2022-12-13T10:19:36.038Z,61.31
2022-12-13T10:22:06.095Z,60.63
2022-12-13T10:24:51.133Z,58.93
2022-12-13T10:27:24.143Z,61.07
2022-12-13T10:30:04.887Z,61.39
2022-12-13T10:32:37.469Z,59.79
2022-12-13T10:35:15.287Z,61.39
2022-12-13T10:37:44.851Z,60.39
2022-12-13T10:40:34.976Z,59.80
2022-12-13T10:43:13.943Z,59.16
2022-12-13T10:45:43.656Z,59.39
2022-12-13T10:48:21.533Z,60.72
2022-12-13T10:51:02.212Z,59.46
2022-12-13T10:53:34.275Z,60.06
2022-12-13T10:56:03.763Z,59.87
2022-12-13T10:58:43.016Z,58.64
2022-12-13T11:01:14.418Z,59.42
2022-12-13T11:03:43.880Z,59.21
2022-12-13T11:06:15.547Z,59.79
2022-12-13T11:08:45.035Z,58.97
2022-12-13T11:11:14.647Z,58.31
2022-12-13T11:13:47.588Z,58.32
2022-12-13T11:16:23.763Z,59.73
2022-12-13T11:18:54.012Z,59.24
2022-12-13T11:21:26.861Z,58.66
2022-12-13T11:23:56.339Z,59.84
2022-12-13T11:26:31.302Z,60.69
2022-12-13T11:29:12.456Z,59.73
2022-12-13T11:31:44.725Z,59.38
2022-12-13T11:34:18.507Z,59.02
2022-12-13T11:36:51.610Z,60.20
2022-12-13T11:39:23.751Z,59.89
2022-12-13T11:41:56.107Z,59.67
2022-12-13T11:44:32.678Z,58.46
2022-12-13T11:47:02.544Z,57.86
2022-12-13T11:49:40.747Z,57.25
2022-12-13T11:52:15.132Z,57.56
2022-12-13T11:54:50.829Z,57.63
2022-12-13T11:57:28.204Z,56.99
2022-12-13T12:00:04.410Z,57.97
2022-12-13T12:02:44.159Z,57.21
2022-12-13T12:05:22.892Z,57.04
2022-12-13T12:08:30.899Z,56.48
2022-12-13T12:10:49.263Z,56.83
2022-12-13T12:13:22.004Z,55.99
2022-12-13T12:15:57.322Z,55.64
2022-12-13T12:18:27.108Z,57.71
2022-12-13T12:21:11.879Z,57.53
2022-12-13T12:23:52.681Z,57.41
2022-12-13T12:26:23.401Z,58.16
2022-12-13T12:29:21.205Z,56.95
2022-12-13T12:31:56.305Z,55.68
2022-12-13T12:34:31.028Z,56.70
2022-12-13T12:37:04.948Z,55.44
2022-12-13T12:39:46.014Z,56.56
2022-12-13T12:42:22.947Z,57.11
2022-12-13T12:45:02.017Z,58.44
2022-12-13T12:50:31.363Z,56.86
2022-12-13T12:53:03.657Z,57.48
2022-12-13T12:55:44.958Z,57.75
2022-12-13T12:58:18.228Z,58.89
2022-12-13T13:00:51.761Z,58.71
2022-12-13T13:03:24.687Z,57.81
2022-12-13T13:06:01.718Z,56.84
2022-12-13T13:08:34.025Z,55.43
2022-12-13T13:11:03.541Z,55.57
2022-12-13T13:13:45.905Z,54.81
2022-12-13T13:16:35.370Z,55.26
2022-12-13T13:19:07.643Z,55.89
2022-12-13T13:21:45.659Z,55.95
2022-12-13T13:24:23.148Z,56.32
2022-12-13T13:26:54.236Z,56.99
2022-12-13T13:29:27.846Z,56.34
2022-12-13T13:32:01.954Z,55.26
2022-12-13T13:34:35.893Z,53.82
2022-12-13T13:37:05.636Z,55.00
2022-12-13T13:40:02.439Z,55.81
2022-12-13T13:42:32.372Z,54.21
2022-12-13T13:45:20.328Z,55.62
2022-12-13T13:48:14.554Z,54.27
2022-12-13T13:51:31.773Z,55.10
2022-12-13T13:54:27.424Z,56.78
2022-12-13T13:57:15.607Z,57.42
2022-12-13T14:00:15.048Z,56.69
2022-12-13T14:03:22.165Z,56.74
2022-12-13T14:06:32.185Z,56.57
2022-12-13T14:09:17.337Z,54.98
2022-12-13T14:12:28.055Z,54.53
2022-12-13T14:15:27.406Z,56.48
2022-12-13T14:18:28.941Z,57.55
2022-12-13T14:21:08.913Z,57.70
2022-12-13T14:23:51.884Z,57.20
2022-12-13T14:26:51.689Z,57.00
2022-12-13T14:29:23.130Z,57.26
2022-12-13T14:31:52.650Z,57.46
2022-12-13T14:34:24.932Z,57.60
2022-12-13T14:36:59.263Z,57.14
2022-12-13T14:39:34.120Z,56.58
2022-12-13T14:42:04.563Z,58.25
2022-12-13T14:44:35.310Z,59.68
2022-12-13T14:47:05.231Z,60.15
2022-12-13T14:49:36.055Z,59.69
2022-12-13T14:52:07.142Z,59.93
2022-12-13T14:54:42.715Z,60.13
2022-12-13T14:57:17.572Z,58.79
2022-12-13T14:59:50.514Z,58.27
2022-12-13T15:02:30.151Z,58.23
2022-12-13T15:05:01.686Z,57.72
2022-12-13T15:07:33.129Z,58.08
2022-12-13T15:10:08.359Z,57.32
2022-12-13T15:12:37.869Z,57.24
2022-12-13T15:15:10.268Z,57.03
2022-12-13T15:17:42.370Z,57.14
2022-12-13T15:20:28.891Z,57.05
2022-12-13T15:23:02.370Z,57.29
2022-12-13T15:25:35.262Z,57.61
2022-12-13T15:28:04.982Z,57.67
2022-12-13T15:30:36.006Z,57.88
2022-12-13T15:33:05.477Z,57.60
2022-12-13T15:35:36.678Z,57.50
2022-12-13T15:38:06.296Z,57.22
2022-12-13T15:40:38.412Z,56.83
2022-12-13T15:43:07.896Z,57.18
2022-12-13T15:45:37.781Z,57.07
2022-12-13T15:48:07.721Z,57.51
2022-12-13T15:50:40.988Z,57.17
2022-12-13T15:53:24.579Z,56.52
2022-12-13T15:55:56.902Z,56.65
2022-12-13T15:58:28.394Z,56.34
2022-12-13T16:00:58.467Z,56.54
2022-12-13T16:03:28.880Z,56.60
2022-12-13T16:05:59.239Z,56.85
2022-12-13T16:08:30.517Z,56.80
2022-12-13T16:11:02.713Z,57.12
2022-12-13T16:13:33.184Z,57.49
2022-12-13T16:16:09.430Z,57.41
2022-12-13T16:18:46.003Z,57.76
2022-12-13T16:21:15.577Z,57.75
2022-12-13T16:23:48.671Z,58.50
2022-12-13T16:26:23.853Z,57.98
2022-12-13T16:28:53.358Z,58.05
2022-12-13T16:31:24.034Z,58.27
2022-12-13T16:33:53.648Z,59.33
2022-12-13T16:36:23.213Z,58.85
2022-12-13T16:38:52.722Z,58.08
2022-12-13T16:41:25.029Z,57.69
2022-12-13T16:43:56.570Z,57.79
2022-12-13T16:47:17.212Z,58.07
2022-12-13T16:49:21.269Z,58.95
2022-12-13T16:51:50.936Z,59.36
2022-12-13T16:54:21.386Z,59.01
2022-12-13T16:56:53.984Z,59.15
2022-12-13T16:59:24.846Z,59.27
2022-12-13T17:01:54.380Z,59.38
2022-12-13T17:04:27.072Z,59.11
2022-12-13T17:06:56.693Z,59.01
2022-12-13T17:09:26.213Z,58.75
2022-12-13T17:11:58.317Z,59.46
2022-12-13T17:14:27.837Z,58.97
2022-12-13T17:16:57.353Z,59.16
2022-12-13T17:19:27.139Z,59.00
2022-12-13T17:21:56.651Z,59.24
2022-12-13T17:24:26.207Z,59.16
2022-12-13T17:26:58.778Z,59.06
2022-12-13T17:29:28.326Z,58.38
2022-12-13T17:31:57.788Z,58.93
2022-12-13T17:34:27.301Z,59.57
2022-12-13T17:36:57.286Z,59.33
2022-12-13T17:39:26.774Z,59.28
2022-12-13T17:41:59.137Z,58.87
2022-12-13T17:44:28.675Z,59.04
2022-12-13T17:46:58.208Z,59.32
2022-12-13T17:49:27.736Z,59.92
2022-12-13T17:51:57.313Z,59.46
2022-12-13T17:54:27.365Z,59.29
2022-12-13T17:56:59.469Z,58.97
2022-12-13T17:59:29.006Z,60.83
2022-12-13T18:01:58.538Z,60.74
2022-12-13T18:04:28.103Z,60.25
2022-12-13T18:06:57.618Z,60.52
2022-12-13T18:09:27.110Z,60.66
2022-12-13T18:11:59.202Z,60.75
2022-12-13T18:14:29.514Z,61.04
2022-12-13T18:16:59.013Z,61.11
2022-12-13T18:19:31.798Z,60.67
2022-12-13T18:22:01.391Z,60.93
2022-12-13T18:24:30.872Z,60.20
2022-12-13T18:27:02.959Z,60.13
2022-12-13T18:29:32.654Z,59.81
2022-12-13T18:32:02.136Z,60.70
2022-12-13T18:34:31.692Z,60.55
2022-12-13T18:37:01.296Z,60.51
2022-12-13T18:39:31.526Z,60.57
2022-12-13T18:42:04.533Z,62.03
2022-12-13T18:44:34.051Z,62.36
2022-12-13T18:47:03.665Z,62.45
2022-12-13T18:49:33.139Z,61.39
2022-12-13T18:52:02.762Z,61.72
2022-12-13T18:54:32.528Z,61.51
2022-12-13T18:57:04.616Z,61.47
2022-12-13T18:59:34.116Z,61.49
2022-12-13T19:02:03.661Z,61.13
2022-12-13T19:04:34.896Z,62.00
2022-12-13T19:07:04.369Z,61.40
2022-12-13T19:09:33.972Z,61.74
2022-12-13T19:12:06.072Z,61.54
2022-12-13T19:14:35.574Z,61.00
2022-12-13T19:17:05.112Z,60.53
2022-12-13T19:19:34.653Z,60.94
2022-12-13T19:22:04.202Z,60.57
2022-12-13T19:24:33.712Z,60.54
2022-12-13T19:27:06.465Z,60.26
2022-12-13T19:29:36.595Z,60.68
2022-12-13T19:32:06.074Z,60.56
2022-12-13T19:34:35.618Z,61.04
2022-12-13T19:37:06.750Z,61.17
2022-12-13T19:39:36.410Z,61.12
2022-12-13T19:42:08.578Z,60.53
2022-12-13T19:44:38.082Z,60.95
2022-12-13T19:47:07.654Z,60.91
2022-12-13T19:49:37.211Z,60.57
2022-12-13T19:52:07.235Z,60.54
2022-12-13T19:54:36.749Z,60.66
2022-12-13T19:57:08.852Z,61.06
2022-12-13T19:59:38.330Z,60.89
2022-12-13T20:02:08.346Z,61.37
2022-12-13T20:04:37.908Z,61.19
2022-12-13T20:07:07.403Z,59.97
2022-12-13T20:09:39.080Z,59.80
2022-12-13T20:12:11.396Z,59.66
2022-12-13T20:14:40.864Z,59.21
2022-12-13T20:17:10.342Z,59.11
2022-12-13T20:19:40.226Z,58.70
2022-12-13T20:22:09.724Z,59.35
2022-12-13T20:24:39.477Z,59.44
2022-12-13T20:27:11.564Z,59.56
2022-12-13T20:29:41.158Z,58.92
2022-12-13T20:32:18.340Z,58.61
2022-12-13T20:34:51.668Z,58.82
2022-12-13T20:37:23.985Z,58.68
2022-12-13T20:39:53.460Z,58.84
2022-12-13T20:42:25.641Z,59.30
2022-12-13T20:44:55.229Z,59.23
2022-12-13T20:47:24.752Z,58.97
2022-12-13T20:49:54.213Z,58.35
2022-12-13T20:52:23.754Z,58.52
2022-12-13T20:54:53.236Z,58.63
2022-12-13T20:57:25.731Z,58.56
2022-12-13T20:59:55.197Z,58.97
2022-12-13T21:02:24.763Z,59.11
2022-12-13T21:04:54.314Z,59.46
2022-12-13T21:07:44.370Z,59.20
2022-12-13T21:10:18.013Z,59.75
2022-12-13T21:12:50.090Z,59.32
2022-12-13T21:15:19.838Z,59.90
2022-12-13T21:17:49.336Z,59.89
2022-12-13T21:20:18.892Z,59.47
2022-12-13T21:22:48.441Z,59.35
2022-12-13T21:25:18.164Z,58.83
2022-12-13T21:27:50.258Z,58.64
2022-12-13T21:30:19.973Z,58.78
2022-12-13T21:32:52.772Z,59.16
2022-12-13T21:35:22.486Z,59.23
2022-12-13T21:37:51.965Z,58.61
2022-12-13T21:40:22.786Z,58.45
2022-12-13T21:42:57.604Z,58.65
2022-12-13T21:45:27.307Z,58.62
2022-12-13T21:47:56.866Z,59.83
2022-12-13T21:50:26.337Z,60.62
2022-12-13T21:52:55.819Z,59.69
2022-12-13T21:55:40.701Z,59.31
2022-12-13T21:58:28.560Z,59.68
2022-12-13T22:00:58.373Z,59.62
2022-12-13T22:03:27.964Z,59.69
2022-12-13T22:05:57.488Z,59.26
2022-12-13T22:08:27.360Z,60.11
2022-12-13T22:11:24.479Z,60.17
2022-12-13T22:13:56.917Z,60.11
2022-12-13T22:16:26.476Z,60.85
2022-12-13T22:18:56.581Z,60.27
2022-12-13T22:21:26.104Z,59.46
2022-12-13T22:23:55.845Z,58.83
2022-12-13T22:26:25.430Z,58.64
2022-12-13T22:28:59.602Z,58.55
2022-12-13T22:31:29.981Z,59.13
2022-12-13T22:33:59.736Z,58.80
2022-12-13T22:36:29.210Z,58.96
2022-12-13T22:38:58.734Z,59.16
2022-12-13T22:41:28.427Z,59.29
2022-12-13T22:44:00.987Z,59.56
2022-12-13T22:46:31.392Z,60.00
2022-12-13T22:49:00.875Z,59.31
2022-12-13T22:51:30.384Z,58.81
2022-12-13T22:53:59.871Z,58.95
2022-12-13T22:56:29.390Z,59.59
2022-12-13T22:59:02.045Z,58.60
2022-12-13T23:01:32.304Z,58.59
2022-12-13T23:04:01.843Z,59.20
2022-12-13T23:06:32.409Z,60.49
2022-12-13T23:09:03.353Z,59.50
2022-12-13T23:11:45.105Z,59.90
2022-12-13T23:14:18.125Z,59.87
2022-12-13T23:16:47.756Z,60.56
2022-12-13T23:19:41.108Z,61.09
2022-12-13T23:22:08.728Z,61.78
2022-12-13T23:24:38.275Z,61.21
2022-12-13T23:27:07.771Z,60.35
2022-12-13T23:29:39.922Z,60.81
2022-12-13T23:32:09.392Z,62.69
2022-12-13T23:34:38.903Z,62.89
2022-12-13T23:37:08.376Z,63.19
2022-12-13T23:39:37.936Z,63.13
2022-12-13T23:42:07.663Z,62.72
2022-12-13T23:44:39.779Z,62.57
2022-12-13T23:47:09.218Z,62.58
2022-12-13T23:49:38.958Z,63.96
2022-12-13T23:52:08.453Z,62.74
2022-12-13T23:54:37.940Z,62.98
2022-12-13T23:57:07.400Z,62.74
2022-12-13T23:59:39.668Z,62.53
